Doris, Washington
Current Conditions -  °F | °C
As of 12:56 PM on Friday 24 Oct 2014 (Local Time) from K1YT Reporting Station
Clear Clear  
Wind Chill: 11°   Ceiling: Unl
Heat Index: 11°   Visibility: 10mi
Dew Point:   Wind: 3mph
Humidity: 69%   Direction: 290°WNW
Pressure: 30.05"   Gusts: NA
Location:  46.8679°N, 120.008°W
Report Text: K1YT 241956Z AUTO 29003KT 10SM CLR 11/05 A3005 RMK AO2 SLPNO T01060051
Loading
Personal Weather Stations






























Interactive Weather Map
Tropical Storm Tracking
New forecast layout! Learn more

10-Day Weather Forecast

Advertisements
Track Severe Weather on mobile